createdAt,value
2023-02-27T00:00:43.011Z,2.60
2023-02-27T00:03:12.968Z,2.20
2023-02-27T00:05:44.499Z,2.03
2023-02-27T00:08:14.159Z,3.13
2023-02-27T00:10:44.308Z,1.60
2023-02-27T00:13:15.922Z,2.83
2023-02-27T00:15:47.385Z,4.40
2023-02-27T00:18:18.796Z,3.73
2023-02-27T00:20:48.953Z,3.97
2023-02-27T00:23:17.887Z,3.90
2023-02-27T00:25:48.555Z,3.80
2023-02-27T00:28:19.934Z,3.40
2023-02-27T00:30:51.308Z,1.40
2023-02-27T00:33:21.988Z,1.40
2023-02-27T00:35:57.989Z,1.93
2023-02-27T00:38:28.123Z,3.20
2023-02-27T00:40:57.756Z,2.33
2023-02-27T00:43:29.503Z,2.57
2023-02-27T00:45:59.059Z,2.00
2023-02-27T00:48:29.006Z,2.60
2023-02-27T00:51:00.939Z,2.63
2023-02-27T00:53:31.312Z,4.27
2023-02-27T00:56:00.948Z,3.37
2023-02-27T00:58:32.097Z,1.37
2023-02-27T01:01:03.026Z,2.33
2023-02-27T01:03:32.880Z,1.80
2023-02-27T01:06:02.794Z,2.30
2023-02-27T01:08:33.865Z,2.87
2023-02-27T01:11:03.394Z,2.80
2023-02-27T01:13:34.032Z,3.60
2023-02-27T01:16:05.084Z,1.80
2023-02-27T01:18:34.480Z,1.70
2023-02-27T01:21:04.273Z,2.03
2023-02-27T01:23:33.708Z,3.27
2023-02-27T01:26:04.852Z,2.10
2023-02-27T01:28:35.622Z,2.23
2023-02-27T01:31:05.240Z,1.70
2023-02-27T01:33:34.673Z,4.97
2023-02-27T01:36:06.545Z,2.40
2023-02-27T01:38:37.828Z,1.67
2023-02-27T01:41:10.739Z,1.70
2023-02-27T01:43:55.319Z,2.33
2023-02-27T01:46:27.571Z,2.33
2023-02-27T01:49:00.004Z,1.90
2023-02-27T01:51:31.322Z,2.07
2023-02-27T01:54:01.427Z,1.60
2023-02-27T01:56:33.457Z,3.47
2023-02-27T01:59:04.151Z,2.13
2023-02-27T02:01:36.821Z,3.00
2023-02-27T02:04:09.349Z,2.60
2023-02-27T02:06:40.886Z,1.97
2023-02-27T02:09:13.130Z,2.07
2023-02-27T02:11:44.437Z,1.87
2023-02-27T02:14:13.634Z,2.57
2023-02-27T02:17:08.159Z,3.20
2023-02-27T02:19:48.243Z,2.40
2023-02-27T02:22:36.932Z,2.37
2023-02-27T02:25:20.500Z,3.33
2023-02-27T02:27:57.129Z,1.63
2023-02-27T02:30:49.565Z,1.70
2023-02-27T02:33:30.688Z,1.97
2023-02-27T02:36:15.688Z,1.90
2023-02-27T02:38:54.236Z,2.83
2023-02-27T02:41:27.165Z,1.90
2023-02-27T02:44:02.119Z,2.50
2023-02-27T02:46:33.871Z,4.73
2023-02-27T02:49:10.310Z,1.27
2023-02-27T02:51:42.352Z,1.37
2023-02-27T02:54:17.795Z,1.70
2023-02-27T02:56:52.757Z,1.13
2023-02-27T02:59:27.776Z,1.97
2023-02-27T03:01:59.078Z,1.20
2023-02-27T03:04:31.625Z,2.13
2023-02-27T03:07:05.557Z,2.07
2023-02-27T03:09:39.381Z,1.87
2023-02-27T03:12:11.864Z,1.40
2023-02-27T03:14:44.763Z,1.63
2023-02-27T03:17:20.933Z,1.63
2023-02-27T03:19:55.568Z,1.53
2023-02-27T03:22:26.478Z,2.80
2023-02-27T03:25:00.386Z,1.37
2023-02-27T03:27:33.744Z,3.83
2023-02-27T03:30:06.228Z,1.83
2023-02-27T03:32:39.471Z,3.93
2023-02-27T03:35:16.107Z,2.10
2023-02-27T03:37:50.578Z,1.47
2023-02-27T03:40:27.476Z,1.80
2023-02-27T03:43:01.503Z,1.73
2023-02-27T03:45:36.574Z,2.73
2023-02-27T03:48:07.287Z,2.07
2023-02-27T03:50:38.370Z,1.17
2023-02-27T03:53:09.047Z,1.20
2023-02-27T03:55:42.504Z,2.77
2023-02-27T03:58:12.043Z,1.37
2023-02-27T04:00:42.428Z,1.37
2023-02-27T04:03:11.999Z,1.40
2023-02-27T04:05:42.117Z,0.90
2023-02-27T04:08:27.827Z,1.57
2023-02-27T04:11:14.068Z,2.10
2023-02-27T04:13:49.288Z,1.33
2023-02-27T04:16:26.300Z,0.93
2023-02-27T04:19:01.702Z,1.47
2023-02-27T04:21:37.900Z,1.17
2023-02-27T04:24:15.568Z,3.20
2023-02-27T04:26:49.028Z,2.70
2023-02-27T04:29:21.828Z,2.97
2023-02-27T04:31:55.554Z,1.53
2023-02-27T04:34:29.276Z,1.93
2023-02-27T04:37:01.732Z,1.20
2023-02-27T04:39:33.193Z,1.97
2023-02-27T04:42:06.437Z,4.73
2023-02-27T04:44:38.300Z,2.27
2023-02-27T04:47:08.235Z,1.33
2023-02-27T04:49:38.891Z,1.57
2023-02-27T04:52:13.640Z,1.50
2023-02-27T04:54:47.927Z,1.33
2023-02-27T04:57:23.370Z,1.93
2023-02-27T04:59:55.769Z,2.30
2023-02-27T05:02:28.048Z,1.53
2023-02-27T05:05:00.360Z,1.00
2023-02-27T05:07:33.193Z,1.07
2023-02-27T05:10:04.768Z,0.90
2023-02-27T05:12:39.338Z,2.20
2023-02-27T05:15:13.554Z,2.53
2023-02-27T05:17:46.137Z,1.33
2023-02-27T05:20:17.632Z,2.40
2023-02-27T05:22:49.103Z,1.20
2023-02-27T05:25:24.108Z,1.90
2023-02-27T05:27:56.835Z,2.00
2023-02-27T05:30:30.504Z,1.80
2023-02-27T05:33:04.072Z,1.20
2023-02-27T05:35:38.986Z,0.83
2023-02-27T05:38:11.662Z,1.20
2023-02-27T05:40:47.562Z,0.90
2023-02-27T05:43:21.344Z,1.40
2023-02-27T05:45:55.207Z,0.80
2023-02-27T05:48:28.014Z,1.20
2023-02-27T05:51:02.328Z,0.90
2023-02-27T05:53:35.539Z,2.90
2023-02-27T05:56:08.572Z,0.80
2023-02-27T05:58:41.979Z,1.20
2023-02-27T06:01:12.331Z,1.00
2023-02-27T06:03:42.894Z,1.00
2023-02-27T06:06:15.996Z,0.90
2023-02-27T06:08:46.634Z,2.50
2023-02-27T06:11:15.934Z,2.57
2023-02-27T06:13:46.687Z,1.20
2023-02-27T06:16:17.318Z,1.83
2023-02-27T06:18:48.864Z,1.73
2023-02-27T06:21:20.313Z,1.70
2023-02-27T06:23:51.601Z,2.97
2023-02-27T06:26:25.903Z,1.57
2023-02-27T06:28:57.796Z,1.00
2023-02-27T06:31:27.782Z,1.30
2023-02-27T06:33:58.288Z,1.00
2023-02-27T06:36:31.209Z,1.07
2023-02-27T06:39:01.412Z,1.00
2023-02-27T06:41:30.932Z,1.77
2023-02-27T06:44:02.203Z,1.20
2023-02-27T06:46:32.929Z,1.67
2023-02-27T06:49:03.007Z,1.40
2023-02-27T06:51:33.295Z,1.97
2023-02-27T06:54:03.112Z,1.00
2023-02-27T06:56:33.752Z,1.20
2023-02-27T06:59:05.218Z,1.50
2023-02-27T07:01:35.822Z,2.73
2023-02-27T07:04:07.166Z,1.00
2023-02-27T07:07:33.199Z,2.60
2023-02-27T07:09:28.901Z,1.07
2023-02-27T07:12:00.234Z,1.30
2023-02-27T07:14:33.115Z,1.20
2023-02-27T07:17:04.612Z,1.80
2023-02-27T07:19:36.686Z,1.50
2023-02-27T07:22:09.614Z,1.67
2023-02-27T07:24:39.773Z,1.60
2023-02-27T07:27:09.604Z,1.63
2023-02-27T07:29:40.771Z,1.53
2023-02-27T07:32:11.821Z,1.57
2023-02-27T07:34:42.055Z,2.97
2023-02-27T07:37:11.656Z,1.80
2023-02-27T07:39:43.693Z,2.70
2023-02-27T07:42:13.352Z,2.17
2023-02-27T07:44:46.509Z,1.60
2023-02-27T07:47:18.280Z,1.53
2023-02-27T07:49:47.699Z,1.10
2023-02-27T07:52:17.064Z,1.30
2023-02-27T07:54:46.425Z,1.10
2023-02-27T07:57:16.484Z,1.60
2023-02-27T07:59:49.993Z,1.17
2023-02-27T08:02:19.407Z,1.43
2023-02-27T08:04:49.156Z,1.10
2023-02-27T08:07:19.961Z,2.87
2023-02-27T08:09:51.409Z,0.80
2023-02-27T08:12:21.236Z,1.33
2023-02-27T08:14:52.027Z,1.20
2023-02-27T08:17:21.429Z,6.43
2023-02-27T08:19:52.964Z,1.80
2023-02-27T08:22:22.588Z,1.63
2023-02-27T08:24:52.912Z,1.30
2023-02-27T08:27:22.706Z,1.20
2023-02-27T08:29:53.615Z,1.13
2023-02-27T08:32:22.909Z,2.20
2023-02-27T08:34:53.824Z,0.70
2023-02-27T08:37:23.384Z,1.50
2023-02-27T08:39:52.561Z,1.37
2023-02-27T08:42:25.471Z,1.10
2023-02-27T08:44:58.145Z,2.43
2023-02-27T08:47:29.245Z,1.63
2023-02-27T08:49:59.009Z,1.80
2023-02-27T08:52:28.392Z,1.13
2023-02-27T08:54:57.888Z,1.23
2023-02-27T08:57:27.149Z,1.53
2023-02-27T09:00:00.093Z,1.20
2023-02-27T09:02:29.926Z,0.80
2023-02-27T09:04:59.762Z,1.10
2023-02-27T09:07:29.594Z,0.80
2023-02-27T09:10:01.342Z,0.60
2023-02-27T09:12:31.010Z,0.70
2023-02-27T09:15:02.028Z,1.07
2023-02-27T09:17:32.309Z,1.20
2023-02-27T09:20:02.875Z,0.60
2023-02-27T09:22:32.609Z,0.80
2023-02-27T09:25:02.088Z,0.57
2023-02-27T09:27:31.724Z,0.70
2023-02-27T09:30:04.183Z,4.30
2023-02-27T09:32:35.432Z,1.00
2023-02-27T09:35:06.572Z,0.70
2023-02-27T09:37:36.403Z,0.80
2023-02-27T09:40:09.045Z,0.50
2023-02-27T09:42:42.725Z,0.50
2023-02-27T09:45:20.133Z,0.50
2023-02-27T09:47:52.006Z,0.20
2023-02-27T09:50:27.997Z,0.20
2023-02-27T09:52:57.955Z,0.33
2023-02-27T09:55:30.837Z,0.53
2023-02-27T09:58:04.699Z,0.30
2023-02-27T10:00:42.598Z,0.30
2023-02-27T10:03:20.759Z,0.30
2023-02-27T10:05:56.953Z,0.20
2023-02-27T10:08:31.376Z,0.20
2023-02-27T10:11:03.493Z,0.20
2023-02-27T10:13:43.228Z,0.40
2023-02-27T10:16:16.747Z,0.20
2023-02-27T10:18:50.772Z,0.37
2023-02-27T10:21:22.246Z,0.10
2023-02-27T10:23:55.010Z,0.30
2023-02-27T10:26:27.550Z,0.20
2023-02-27T10:28:57.914Z,0.20
2023-02-27T10:31:31.960Z,0.10
2023-02-27T10:34:03.117Z,0.30
2023-02-27T10:36:35.056Z,0.20
2023-02-27T10:39:07.634Z,0.13
2023-02-27T10:41:39.985Z,0.77
2023-02-27T10:44:11.353Z,0.57
2023-02-27T10:46:42.883Z,0.10
2023-02-27T10:49:18.852Z,0.20
2023-02-27T10:51:49.028Z,0.30
2023-02-27T10:54:28.276Z,0.10
2023-02-27T10:56:58.657Z,0.20
2023-02-27T10:59:28.863Z,0.33
2023-02-27T11:02:02.251Z,0.20
2023-02-27T11:04:34.736Z,0.30
2023-02-27T11:07:09.860Z,0.17
2023-02-27T11:09:39.356Z,0.20
2023-02-27T11:12:20.882Z,0.20
2023-02-27T11:14:51.679Z,0.47
2023-02-27T11:17:27.103Z,0.10
2023-02-27T11:19:56.899Z,0.10
2023-02-27T11:22:29.502Z,0.20
2023-02-27T11:25:20.827Z,0.20
2023-02-27T11:27:52.478Z,1.70
2023-02-27T11:30:32.117Z,0.10
2023-02-27T11:33:03.602Z,0.07
2023-02-27T11:35:34.603Z,0.23
2023-02-27T11:38:08.642Z,1.13
2023-02-27T11:40:39.828Z,0.10
2023-02-27T11:43:18.979Z,0.10
2023-02-27T11:46:05.137Z,3.77
2023-02-27T11:48:51.594Z,0.00
2023-02-27T11:51:29.676Z,0.17
2023-02-27T11:54:17.763Z,0.10
2023-02-27T11:56:50.533Z,0.10
2023-02-27T11:59:25.838Z,0.10
2023-02-27T12:01:58.524Z,0.10
2023-02-27T12:04:32.338Z,0.27
2023-02-27T12:07:05.460Z,0.10
2023-02-27T12:09:38.576Z,0.20
2023-02-27T12:12:09.817Z,0.20
2023-02-27T12:14:46.008Z,0.10
2023-02-27T12:17:18.518Z,0.17
2023-02-27T12:19:53.295Z,0.20
2023-02-27T12:22:24.647Z,0.20
2023-02-27T12:24:56.046Z,0.30
2023-02-27T12:27:27.515Z,0.23
2023-02-27T12:30:01.074Z,0.20
2023-02-27T12:32:32.858Z,1.23
2023-02-27T12:35:09.819Z,0.20
2023-02-27T12:37:40.609Z,0.20
2023-02-27T12:40:11.080Z,0.30
2023-02-27T12:42:52.667Z,0.20
2023-02-27T12:45:38.296Z,0.27
2023-02-27T12:48:15.241Z,0.67
2023-02-27T12:50:51.332Z,0.27
2023-02-27T12:53:30.951Z,0.00
2023-02-27T12:56:07.476Z,0.10
2023-02-27T12:58:47.008Z,0.10
2023-02-27T13:01:26.918Z,0.73
2023-02-27T13:04:00.196Z,0.30
2023-02-27T13:06:37.278Z,0.10
2023-02-27T13:09:14.171Z,0.37
2023-02-27T13:11:47.883Z,0.10
2023-02-27T13:14:24.710Z,0.20
2023-02-27T13:16:58.756Z,0.20
2023-02-27T13:19:32.048Z,0.10
2023-02-27T13:22:06.174Z,0.10
2023-02-27T13:24:36.548Z,1.57
2023-02-27T13:27:09.516Z,0.97
2023-02-27T13:29:39.918Z,0.10
2023-02-27T13:32:16.078Z,0.17
2023-02-27T13:34:47.123Z,0.10
2023-02-27T13:37:19.804Z,0.20
2023-02-27T13:40:01.946Z,0.20
2023-02-27T13:42:49.654Z,0.30
2023-02-27T13:45:38.202Z,0.60
2023-02-27T13:48:31.880Z,0.30
2023-02-27T13:51:02.444Z,0.20
2023-02-27T13:53:33.736Z,0.10
2023-02-27T13:56:17.652Z,0.03
2023-02-27T13:58:47.072Z,0.83
2023-02-27T14:01:18.831Z,0.20
2023-02-27T14:03:57.045Z,0.30
2023-02-27T14:06:27.148Z,0.13
2023-02-27T14:09:14.861Z,0.40
2023-02-27T14:11:53.913Z,0.27
2023-02-27T14:14:40.438Z,0.90
2023-02-27T14:17:12.395Z,0.43
2023-02-27T14:19:57.410Z,0.20
2023-02-27T14:22:34.538Z,0.93
2023-02-27T14:25:07.225Z,0.20
2023-02-27T14:27:43.163Z,0.83
2023-02-27T14:30:25.258Z,0.10
2023-02-27T14:32:56.915Z,0.20
2023-02-27T14:35:28.507Z,0.30
2023-02-27T14:37:59.801Z,0.87
2023-02-27T14:40:33.762Z,1.47
2023-02-27T14:43:08.026Z,0.30
2023-02-27T14:45:37.588Z,0.30
2023-02-27T14:48:14.119Z,0.30
2023-02-27T14:50:44.613Z,0.20
2023-02-27T14:53:24.527Z,0.50
2023-02-27T14:56:04.072Z,0.50
2023-02-27T14:58:33.395Z,0.30
2023-02-27T15:01:06.145Z,0.20
2023-02-27T15:03:37.850Z,0.20
2023-02-27T15:06:18.496Z,0.20
2023-02-27T15:08:49.361Z,0.40
2023-02-27T15:11:22.843Z,0.23
2023-02-27T15:13:54.952Z,0.20
2023-02-27T15:16:32.251Z,0.30
2023-02-27T15:19:04.810Z,0.30
2023-02-27T15:21:35.832Z,0.10
2023-02-27T15:24:06.876Z,0.10
2023-02-27T15:26:38.973Z,0.10
2023-02-27T15:29:09.749Z,0.10
2023-02-27T15:31:41.615Z,0.50
2023-02-27T15:34:14.643Z,0.20
2023-02-27T15:36:48.479Z,1.43
2023-02-27T15:39:19.514Z,0.20
2023-02-27T15:41:52.158Z,0.20
2023-02-27T15:44:25.568Z,0.10
2023-02-27T15:46:55.828Z,0.17
2023-02-27T15:49:28.215Z,0.10
2023-02-27T15:52:00.110Z,0.30
2023-02-27T15:54:33.986Z,0.30
2023-02-27T15:57:05.419Z,0.97
2023-02-27T15:59:37.617Z,0.20
2023-02-27T16:02:08.493Z,0.20
2023-02-27T16:04:38.271Z,0.30
2023-02-27T16:07:12.554Z,0.63
2023-02-27T16:09:48.020Z,0.30
2023-02-27T16:12:30.741Z,0.30
2023-02-27T16:15:19.274Z,0.40
2023-02-27T16:17:54.950Z,1.03
2023-02-27T16:20:34.341Z,2.13
2023-02-27T16:23:04.012Z,1.47
2023-02-27T16:25:35.509Z,1.00
2023-02-27T16:28:06.511Z,0.40
2023-02-27T16:30:35.498Z,0.60
2023-02-27T16:33:06.466Z,0.33
2023-02-27T16:35:36.084Z,0.20
2023-02-27T16:38:05.336Z,1.23
2023-02-27T16:40:36.906Z,0.97
2023-02-27T16:43:08.517Z,0.50
2023-02-27T16:45:37.726Z,0.50
2023-02-27T16:48:08.223Z,0.20
2023-02-27T16:50:37.901Z,0.20
2023-02-27T16:53:07.932Z,0.20
2023-02-27T16:55:37.090Z,0.30
2023-02-27T16:58:08.086Z,0.10
2023-02-27T17:00:37.746Z,0.17
2023-02-27T17:03:06.914Z,0.20
2023-02-27T17:05:37.528Z,0.20
2023-02-27T17:08:08.621Z,0.20
2023-02-27T17:10:38.265Z,0.20
2023-02-27T17:13:09.927Z,0.00
2023-02-27T17:15:39.908Z,0.10
2023-02-27T17:18:12.345Z,0.77
2023-02-27T17:20:42.974Z,0.30
2023-02-27T17:23:14.477Z,0.30
2023-02-27T17:25:48.842Z,0.20
2023-02-27T17:28:20.447Z,0.10
2023-02-27T17:30:51.088Z,0.27
2023-02-27T17:33:20.577Z,0.10
2023-02-27T17:35:51.380Z,0.10
2023-02-27T17:38:22.081Z,0.10
2023-02-27T17:40:51.332Z,0.10
2023-02-27T17:43:22.858Z,0.20
2023-02-27T17:45:52.099Z,0.00
2023-02-27T17:48:21.313Z,3.53
2023-02-27T17:50:51.048Z,0.63
2023-02-27T17:53:21.940Z,0.20
2023-02-27T17:55:53.840Z,0.20
2023-02-27T17:58:25.409Z,0.20
2023-02-27T18:00:54.659Z,0.10
2023-02-27T18:03:24.329Z,0.63
2023-02-27T18:05:54.947Z,0.10
2023-02-27T18:08:26.116Z,0.10
2023-02-27T18:10:56.196Z,0.43
2023-02-27T18:13:28.986Z,1.53
2023-02-27T18:16:01.392Z,1.37
2023-02-27T18:18:31.645Z,0.30
2023-02-27T18:21:08.073Z,0.60
2023-02-27T18:23:38.092Z,0.83
2023-02-27T18:26:10.584Z,2.10
2023-02-27T18:28:43.376Z,1.13
2023-02-27T18:31:20.198Z,1.07
2023-02-27T18:33:52.107Z,0.77
2023-02-27T18:36:23.283Z,0.87
2023-02-27T18:38:52.599Z,0.67
2023-02-27T18:41:22.764Z,3.23
2023-02-27T18:43:54.349Z,4.43
2023-02-27T18:46:24.168Z,1.53
2023-02-27T18:48:54.780Z,1.30
2023-02-27T18:51:24.153Z,2.37
2023-02-27T18:53:54.334Z,1.30
2023-02-27T18:56:28.177Z,1.53
2023-02-27T18:59:02.357Z,1.20
2023-02-27T19:01:33.064Z,1.53
2023-02-27T19:04:05.285Z,1.53
2023-02-27T19:06:36.992Z,1.50
2023-02-27T19:09:08.017Z,1.30
2023-02-27T19:11:37.461Z,1.33
2023-02-27T19:14:10.826Z,1.43
2023-02-27T19:16:40.412Z,1.67
2023-02-27T19:19:10.841Z,5.27
2023-02-27T19:21:39.942Z,3.27
2023-02-27T19:24:09.831Z,1.23
2023-02-27T19:26:39.673Z,1.40
2023-02-27T19:29:14.389Z,1.60
2023-02-27T19:31:44.975Z,0.73
2023-02-27T19:34:17.488Z,1.43
2023-02-27T19:36:49.355Z,2.23
2023-02-27T19:39:18.983Z,0.80
2023-02-27T19:41:50.651Z,1.03
2023-02-27T19:44:24.024Z,1.20
2023-02-27T19:46:54.068Z,1.10
2023-02-27T19:49:23.159Z,0.93
2023-02-27T19:51:52.202Z,1.63
2023-02-27T19:54:22.176Z,1.20
2023-02-27T19:56:52.960Z,2.10
2023-02-27T19:59:25.381Z,1.30
2023-02-27T20:01:55.124Z,0.90
2023-02-27T20:04:24.628Z,0.93
2023-02-27T20:06:55.146Z,1.30
2023-02-27T20:09:24.777Z,1.13
2023-02-27T20:11:58.801Z,0.63
2023-02-27T20:14:29.798Z,0.63
2023-02-27T20:16:59.373Z,4.97
2023-02-27T20:19:28.356Z,1.93
2023-02-27T20:21:57.685Z,0.57
2023-02-27T20:24:27.863Z,0.90
2023-02-27T20:27:01.556Z,1.43
2023-02-27T20:29:32.197Z,0.70
2023-02-27T20:32:02.773Z,0.90
2023-02-27T20:34:34.387Z,0.87
2023-02-27T20:37:05.083Z,1.03
2023-02-27T20:39:35.656Z,1.10
2023-02-27T20:42:08.483Z,1.33
2023-02-27T20:44:39.716Z,0.90
2023-02-27T20:47:11.411Z,0.83
2023-02-27T20:49:41.702Z,0.77
2023-02-27T20:52:13.219Z,1.23
2023-02-27T20:54:43.884Z,0.77
2023-02-27T20:57:13.472Z,1.27
2023-02-27T20:59:46.033Z,0.90
2023-02-27T21:02:15.636Z,0.80
2023-02-27T21:04:48.962Z,0.87
2023-02-27T21:07:21.455Z,1.07
2023-02-27T21:09:51.075Z,0.83
2023-02-27T21:12:20.605Z,2.23
2023-02-27T21:14:52.647Z,2.67
2023-02-27T21:17:23.686Z,1.50
2023-02-27T21:19:53.000Z,1.10
2023-02-27T21:22:25.120Z,1.30
2023-02-27T21:24:54.320Z,2.77
2023-02-27T21:27:24.584Z,1.63
2023-02-27T21:29:54.996Z,1.23
2023-02-27T21:32:24.250Z,1.70
2023-02-27T21:34:54.135Z,3.83
2023-02-27T21:37:25.408Z,1.60
2023-02-27T21:39:57.687Z,2.63
2023-02-27T21:42:26.949Z,2.60
2023-02-27T21:44:58.008Z,1.40
2023-02-27T21:47:28.134Z,2.60
2023-02-27T21:49:58.547Z,2.00
2023-02-27T21:52:32.667Z,3.90
2023-02-27T21:55:03.845Z,2.97
2023-02-27T21:57:34.967Z,1.60
2023-02-27T22:00:09.436Z,2.07
2023-02-27T22:02:40.297Z,4.00
2023-02-27T22:05:10.260Z,5.70
2023-02-27T22:07:40.783Z,5.27
2023-02-27T22:10:10.656Z,4.63
2023-02-27T22:12:40.435Z,3.13
2023-02-27T22:15:12.611Z,3.63
2023-02-27T22:17:42.556Z,3.47
2023-02-27T22:20:12.548Z,2.30
2023-02-27T22:22:43.422Z,5.50
2023-02-27T22:25:14.992Z,4.60
2023-02-27T22:27:43.888Z,5.93
2023-02-27T22:30:16.419Z,2.93
2023-02-27T22:32:48.602Z,5.60
2023-02-27T22:35:18.111Z,3.83
2023-02-27T22:37:47.809Z,3.63
2023-02-27T22:40:17.937Z,3.90
2023-02-27T22:42:48.512Z,2.67
2023-02-27T22:45:19.403Z,4.93
2023-02-27T22:47:50.204Z,4.40
2023-02-27T22:50:21.978Z,3.97
2023-02-27T22:52:51.702Z,2.93
2023-02-27T22:55:20.753Z,3.27
2023-02-27T22:57:51.997Z,2.30
2023-02-27T23:00:24.858Z,6.03
2023-02-27T23:02:54.792Z,2.77
2023-02-27T23:05:25.022Z,2.63
2023-02-27T23:07:55.388Z,2.40
2023-02-27T23:10:25.376Z,5.10
2023-02-27T23:12:55.448Z,4.37
2023-02-27T23:15:26.964Z,3.23
2023-02-27T23:17:58.433Z,2.00
2023-02-27T23:20:29.098Z,2.20
2023-02-27T23:22:58.147Z,2.97
2023-02-27T23:25:28.013Z,2.67
2023-02-27T23:27:58.279Z,2.37
2023-02-27T23:30:29.994Z,3.20
2023-02-27T23:32:59.580Z,4.20
2023-02-27T23:35:31.244Z,2.63
2023-02-27T23:38:03.778Z,1.60
2023-02-27T23:40:33.235Z,5.03
2023-02-27T23:43:02.656Z,2.33
2023-02-27T23:45:37.416Z,3.53
2023-02-27T23:48:07.416Z,2.73
2023-02-27T23:50:38.680Z,2.60
2023-02-27T23:53:10.960Z,2.00
2023-02-27T23:55:41.167Z,3.63
2023-02-27T23:58:11.229Z,2.90
